Time;durP1;ratioP1;P1;durP2;ratioP2;P2;SDS_P1;SDS_P2;PMS_P1;PMS_P2;Temp;Humidity;BMP_temperature;BMP_pressure;BME280_temperature;BME280_humidity;BME280_pressure;Samples;Min_cycle;Max_cycle;Signal;HPM_P1;HPM_P2
2022/10/31 00:01:54;;;;;;;5.97;3.90;;;;;;;9.63;100.00;101815.59;4979926;28;20038;-51
2022/10/31 00:04:19;;;;;;;4.40;3.35;;;;;;;10.01;100.00;101879.97;4989617;28;20069;-54
2022/10/31 00:06:44;;;;;;;5.35;3.83;;;;;;;9.92;100.00;101867.81;4976581;28;20037;-51
2022/10/31 00:09:10;;;;;;;4.82;3.40;;;;;;;10.01;100.00;101875.56;4992405;28;20033;-54
2022/10/31 00:11:35;;;;;;;4.40;3.42;;;;;;;10.05;100.00;101879.00;4992491;28;20038;-56
2022/10/31 00:14:01;;;;;;;7.65;3.47;;;;;;;10.08;100.00;101889.50;4978873;28;20471;-56
2022/10/31 00:16:27;;;;;;;7.95;3.85;;;;;;;9.49;100.00;101787.75;5002695;28;20037;-56
2022/10/31 00:18:58;;;;;;;5.13;3.45;;;;;;;9.75;100.00;101826.84;4992762;28;20118;-53
2022/10/31 00:21:24;;;;;;;8.50;3.75;;;;;;;9.65;100.00;101814.72;4984070;28;20035;-55
2022/10/31 00:23:49;;;;;;;6.43;3.90;;;;;;;9.70;100.00;101821.63;4985273;28;20508;-50
2022/10/31 00:26:15;;;;;;;4.25;3.38;;;;;;;9.58;100.00;101809.53;4975863;28;20031;-50
2022/10/31 00:28:41;;;;;;;3.80;3.22;;;;;;;9.68;100.00;101833.94;4989020;28;20106;-53
2022/10/31 00:31:08;;;;;;;4.60;3.83;;;;;;;10.06;100.00;101905.31;4979126;28;20034;-54
2022/10/31 00:33:36;;;;;;;6.40;3.42;;;;;;;10.04;100.00;101901.81;4982560;28;20066;-53
2022/10/31 00:36:02;;;;;;;6.82;3.67;;;;;;;10.00;100.00;101891.38;4995797;28;20113;-50
2022/10/31 00:38:27;;;;;;;5.40;3.42;;;;;;;9.93;100.00;101890.56;4992185;28;20068;-55
2022/10/31 00:40:52;;;;;;;5.45;3.47;;;;;;;9.63;100.00;101849.75;4987676;28;20031;-55
2022/10/31 00:43:18;;;;;;;6.50;3.53;;;;;;;9.50;100.00;101832.41;4979425;28;20125;-56
2022/10/31 00:45:43;;;;;;;5.63;3.22;;;;;;;9.88;100.00;101907.31;4980950;28;20475;-55
2022/10/31 00:48:09;;;;;;;8.43;4.00;;;;;;;9.52;100.00;101842.91;4987554;28;20057;-53
2022/10/31 00:50:35;;;;;;;5.97;3.75;;;;;;;9.77;100.00;101899.56;4976095;28;20065;-54
2022/10/31 00:53:00;;;;;;;6.38;3.50;;;;;;;9.45;100.00;101838.63;4985550;28;20030;-52
2022/10/31 00:55:26;;;;;;;7.88;4.20;;;;;;;9.66;100.00;101882.19;4982388;28;20484;-55
2022/10/31 00:57:51;;;;;;;7.28;3.97;;;;;;;9.69;100.00;101897.91;4983605;28;20097;-56
2022/10/31 01:00:16;;;;;;;4.97;4.20;;;;;;;9.72;100.00;101900.50;4992082;28;20046;-58
2022/10/31 01:02:42;;;;;;;7.40;3.47;;;;;;;9.63;100.00;101906.75;4979813;28;20394;-53
2022/10/31 01:05:07;;;;;;;6.57;4.00;;;;;;;9.32;100.00;101837.00;4989337;28;20058;-51
2022/10/31 01:07:37;;;;;;;4.80;3.92;;;;;;;9.65;100.00;101891.81;4986335;28;20402;-55
2022/10/31 01:10:04;;;;;;;6.25;4.30;;;;;;;9.28;100.00;101812.50;4995399;28;20038;-55
2022/10/31 01:12:29;;;;;;;7.45;4.43;;;;;;;9.62;100.00;101878.72;4994187;28;20038;-53
2022/10/31 01:14:55;;;;;;;5.72;4.05;;;;;;;9.58;100.00;101872.59;4980729;28;20359;-50
2022/10/31 01:17:20;;;;;;;7.43;4.85;;;;;;;9.57;100.00;101878.75;4987727;28;20410;-54
2022/10/31 01:19:45;;;;;;;6.63;4.75;;;;;;;9.48;100.00;101871.00;4987522;28;20118;-53
2022/10/31 01:22:11;;;;;;;6.85;4.47;;;;;;;9.37;100.00;101858.88;4979548;28;20042;-50
2022/10/31 01:24:36;;;;;;;7.18;4.72;;;;;;;9.13;100.00;101819.72;4990852;28;20085;-54
2022/10/31 01:27:02;;;;;;;5.47;4.60;;;;;;;9.45;100.00;101886.78;4981409;28;20030;-51
2022/10/31 01:29:27;;;;;;;6.32;4.72;;;;;;;9.34;100.00;101883.38;4986145;28;20490;-50
2022/10/31 01:31:52;;;;;;;7.57;5.07;;;;;;;9.41;100.00;101886.81;4988494;28;20045;-54
2022/10/31 01:34:18;;;;;;;10.15;5.00;;;;;;;9.00;100.00;101817.22;4994528;28;20038;-50
2022/10/31 01:36:46;;;;;;;6.50;4.72;;;;;;;9.32;100.00;101868.53;4995525;28;20031;-52
2022/10/31 01:39:14;;;;;;;9.07;5.35;;;;;;;9.03;100.00;101824.19;4993878;28;20069;-52
2022/10/31 01:41:47;;;;;;;7.30;5.00;;;;;;;9.23;100.00;101873.88;4995352;28;20038;-55
2022/10/31 01:44:13;;;;;;;6.60;5.40;;;;;;;9.23;100.00;101877.38;4995114;28;20038;-52
2022/10/31 01:46:42;;;;;;;7.78;5.22;;;;;;;8.97;100.00;101837.38;4979141;28;20417;-52
2022/10/31 01:49:21;;;;;;;10.15;5.22;;;;;;;9.16;100.00;101873.09;4987446;28;20031;-52
2022/10/31 01:52:12;;;;;;;8.18;6.22;;;;;;;9.15;100.00;101867.84;4985700;28;20053;-53
2022/10/31 01:54:40;;;;;;;6.40;5.68;;;;;;;9.05;100.00;101854.78;4988772;28;20042;-53
2022/10/31 01:57:07;;;;;;;7.07;5.70;;;;;;;8.71;100.00;101802.63;4987808;28;20031;-55
2022/10/31 01:59:35;;;;;;;9.02;6.30;;;;;;;8.57;100.00;101808.03;4985145;28;20070;-50
2022/10/31 02:02:00;;;;;;;6.35;5.60;;;;;;;8.97;100.00;101850.50;4980004;28;20113;-51
2022/10/31 02:04:25;;;;;;;6.50;5.90;;;;;;;8.92;100.00;101860.19;4990078;28;20474;-52
2022/10/31 02:06:55;;;;;;;7.30;6.18;;;;;;;8.51;100.00;101800.19;4978379;28;20026;-57
2022/10/31 02:09:23;;;;;;;8.60;6.22;;;;;;;8.52;100.00;101799.31;4993574;28;20030;-52
2022/10/31 02:11:51;;;;;;;8.00;6.38;;;;;;;8.49;100.00;101801.97;4994559;28;20509;-56
2022/10/31 02:14:16;;;;;;;7.93;6.18;;;;;;;8.37;100.00;101789.84;4993343;28;20034;-53
2022/10/31 02:16:41;;;;;;;9.00;6.28;;;;;;;8.34;100.00;101791.59;4994506;28;20042;-53
2022/10/31 02:19:08;;;;;;;8.57;6.57;;;;;;;8.38;100.00;101806.41;4986902;28;20030;-54
2022/10/31 02:21:58;;;;;;;7.78;6.90;;;;;;;8.32;100.00;101806.47;4984770;28;20034;-57
2022/10/31 02:24:40;;;;;;;10.07;7.00;;;;;;;8.65;100.00;101869.19;4977293;28;20132;-49
2022/10/31 02:27:32;;;;;;;11.65;6.75;;;;;;;8.63;100.00;101864.81;4987047;28;20100;-56
2022/10/31 02:30:10;;;;;;;10.68;7.70;;;;;;;8.60;100.00;101870.97;4986514;28;20034;-53
2022/10/31 02:33:01;;;;;;;9.95;6.72;;;;;;;8.57;100.00;101871.00;4992995;28;20031;-50
2022/10/31 02:35:57;;;;;;;10.20;6.72;;;;;;;8.55;100.00;101872.78;4985600;28;20092;-56
2022/10/31 02:38:56;;;;;;;12.00;7.85;;;;;;;8.57;100.00;101864.88;4990755;28;20026;-56
2022/10/31 02:42:12;;;;;;;10.85;7.55;;;;;;;8.55;100.00;101866.66;4983076;28;20378;-51
2022/10/31 02:44:56;;;;;;;11.57;7.85;;;;;;;8.39;100.00;101844.91;4982677;28;20034;-53
2022/10/31 02:47:25;;;;;;;12.80;8.25;;;;;;;8.47;100.00;101875.44;4985030;28;20039;-56
2022/10/31 02:50:01;;;;;;;8.55;7.60;;;;;;;8.08;100.00;101793.53;4993544;28;20042;-54
2022/10/31 02:52:29;;;;;;;11.45;8.70;;;;;;;8.45;100.00;101871.97;4995219;28;20072;-52
2022/10/31 02:54:54;;;;;;;11.43;8.70;;;;;;;8.06;100.00;101792.63;4988928;28;20027;-55
2022/10/31 02:57:24;;;;;;;14.18;9.10;;;;;;;8.39;100.00;101861.50;4982623;28;20402;-52
2022/10/31 02:59:55;;;;;;;10.10;8.37;;;;;;;7.70;100.00;101730.88;4996663;28;20049;-55
2022/10/31 03:02:23;;;;;;;9.27;8.17;;;;;;;8.40;100.00;101865.88;4990337;28;20030;-54
2022/10/31 03:05:06;;;;;;;16.15;8.40;;;;;;;8.37;100.00;101860.66;4978191;28;20485;-55
2022/10/31 03:07:42;;;;;;;13.13;9.10;;;;;;;8.10;100.00;101808.34;4982939;28;20368;-51
2022/10/31 03:10:22;;;;;;;11.30;8.25;;;;;;;8.37;100.00;101851.91;4989827;28;20026;-54
2022/10/31 03:13:15;;;;;;;10.50;8.82;;;;;;;8.36;100.00;101858.03;4992096;28;20026;-57
2022/10/31 03:15:44;;;;;;;11.82;8.68;;;;;;;8.02;100.00;101797.06;4991973;28;20049;-56
2022/10/31 03:18:15;;;;;;;11.07;8.45;;;;;;;8.31;100.00;101863.31;4991536;28;20030;-54
2022/10/31 03:20:48;;;;;;;11.18;8.48;;;;;;;7.96;100.00;101801.47;4993172;28;20026;-50
2022/10/31 03:23:16;;;;;;;17.00;8.98;;;;;;;8.28;100.00;101857.22;4985015;28;20093;-52
2022/10/31 03:25:42;;;;;;;9.65;8.10;;;;;;;8.27;100.00;101851.09;4983550;28;20034;-50
2022/10/31 03:28:08;;;;;;;14.27;9.27;;;;;;;7.89;100.00;101791.00;4977368;28;20050;-58
2022/10/31 03:30:36;;;;;;;14.35;9.70;;;;;;;8.30;100.00;101856.31;4988666;28;20142;-54
2022/10/31 03:33:03;;;;;;;15.45;10.73;;;;;;;7.95;100.00;101795.34;4980561;28;20394;-52
2022/10/31 03:35:28;;;;;;;15.93;10.32;;;;;;;8.24;100.00;101851.09;4992088;28;20034;-51
2022/10/31 03:37:55;;;;;;;19.30;11.73;;;;;;;8.35;100.00;101854.53;4991831;28;20034;-54
2022/10/31 03:40:21;;;;;;;13.85;11.45;;;;;;;8.35;100.00;101853.66;4976782;28;20035;-59
2022/10/31 03:42:53;;;;;;;18.90;12.23;;;;;;;8.40;100.00;101867.63;4987872;28;20066;-54
2022/10/31 03:45:24;;;;;;;16.23;12.77;;;;;;;8.00;100.00;101785.69;4981024;28;20486;-53
2022/10/31 03:47:49;;;;;;;;;;;;;;;8.42;100.00;101855.38;4980304;28;20478;-55
2022/10/31 03:50:15;;;;;;;19.90;12.90;;;;;;;8.45;100.00;101850.09;4987378;28;19924;-54
2022/10/31 03:52:48;;;;;;;23.15;14.18;;;;;;;8.50;100.00;101858.78;4976652;28;20309;-55
2022/10/31 03:55:18;;;;;;;24.35;15.07;;;;;;;8.54;100.00;101859.66;4984394;28;20034;-51
2022/10/31 03:57:52;;;;;;;26.55;16.45;;;;;;;8.54;100.00;101859.66;4983296;28;20093;-58
2022/10/31 04:00:18;;;;;;;23.20;14.45;;;;;;;8.11;100.00;101789.13;4976902;28;20118;-55
2022/10/31 04:03:01;;;;;;;20.52;15.25;;;;;;;8.33;100.00;101824.81;5004529;28;20110;-56
2022/10/31 04:05:27;;;;;;;20.38;15.32;;;;;;;8.44;100.00;101850.97;4980832;28;20375;-58
2022/10/31 04:07:54;;;;;;;23.58;15.50;;;;;;;8.14;100.00;101806.59;4979151;28;20070;-50
2022/10/31 04:10:21;;;;;;;24.30;15.65;;;;;;;8.04;100.00;101797.03;4973123;28;20049;-52
2022/10/31 04:12:52;;;;;;;25.35;15.98;;;;;;;8.10;100.00;101805.72;5007437;28;20027;-57
2022/10/31 04:15:19;;;;;;;23.00;15.60;;;;;;;8.31;100.00;101858.09;4991212;28;20042;-48
2022/10/31 04:17:45;;;;;;;24.05;16.27;;;;;;;8.34;100.00;101875.53;4991330;28;20068;-55
2022/10/31 04:20:11;;;;;;;26.80;16.90;;;;;;;8.25;100.00;101850.22;4975198;28;20437;-56
2022/10/31 04:22:36;;;;;;;31.27;18.20;;;;;;;8.34;100.00;101867.69;4975255;28;20073;-53
2022/10/31 04:25:02;;;;;;;32.50;20.10;;;;;;;8.34;100.00;101868.56;4986876;28;20043;-57
2022/10/31 04:27:27;;;;;;;30.33;20.02;;;;;;;8.30;100.00;101868.56;4982369;28;20038;-58
2022/10/31 04:29:52;;;;;;;24.98;17.98;;;;;;;8.27;100.00;101866.84;4980151;28;20505;-55
2022/10/31 04:32:17;;;;;;;28.33;19.33;;;;;;;7.84;100.00;101802.41;4991316;28;20041;-56
2022/10/31 04:34:43;;;;;;;29.55;19.10;;;;;;;8.27;100.00;101873.81;4980653;28;20041;-56
2022/10/31 04:37:08;;;;;;;28.75;20.20;;;;;;;8.24;100.00;101863.31;4989776;28;20033;-57
2022/10/31 04:39:33;;;;;;;30.05;20.42;;;;;;;7.86;100.00;101809.38;4986902;28;20046;-55
2022/10/31 04:41:59;;;;;;;35.28;20.92;;;;;;;7.16;100.00;101698.84;4983063;28;20038;-54
2022/10/31 04:44:24;;;;;;;30.40;20.88;;;;;;;8.15;100.00;101866.88;4992920;28;20507;-54
2022/10/31 04:46:49;;;;;;;31.83;21.92;;;;;;;7.76;100.00;101802.44;4980540;28;20497;-52
2022/10/31 04:49:14;;;;;;;38.65;22.30;;;;;;;8.08;100.00;101865.19;4988824;28;20057;-54
2022/10/31 04:51:40;;;;;;;38.53;23.67;;;;;;;8.08;100.00;101866.94;4986065;28;20069;-51
2022/10/31 04:54:05;;;;;;;43.58;26.13;;;;;;;8.05;100.00;101856.47;4981902;28;20475;-51
2022/10/31 04:56:30;;;;;;;43.30;27.02;;;;;;;8.04;100.00;101859.97;4991319;28;20061;-51
2022/10/31 04:58:56;;;;;;;39.80;26.55;;;;;;;7.70;100.00;101804.25;4979857;28;20085;-53
2022/10/31 05:01:21;;;;;;;44.65;27.45;;;;;;;7.93;100.00;101844.31;4987445;28;20031;-57
2022/10/31 05:03:46;;;;;;;41.72;26.33;;;;;;;7.63;100.00;101789.41;4987876;28;20084;-56
2022/10/31 05:06:12;;;;;;;42.28;26.52;;;;;;;7.98;100.00;101863.50;4980676;28;20126;-56
2022/10/31 05:08:37;;;;;;;43.08;28.58;;;;;;;7.98;100.00;101866.09;4994599;28;20109;-54
2022/10/31 05:11:04;;;;;;;45.67;27.95;;;;;;;7.98;100.00;101853.00;4994296;28;20465;-52
2022/10/31 05:13:29;;;;;;;48.55;28.83;;;;;;;7.99;100.00;101848.63;4986457;28;20041;-53
2022/10/31 05:15:55;;;;;;;48.30;30.05;;;;;;;7.95;100.00;101845.16;4988974;28;20389;-53
2022/10/31 05:18:20;;;;;;;50.83;30.58;;;;;;;7.88;100.00;101840.84;4979421;28;20082;-54
2022/10/31 05:20:45;;;;;;;47.00;29.70;;;;;;;7.94;100.00;101854.75;4990783;28;20019;-51
2022/10/31 05:23:11;;;;;;;46.50;29.30;;;;;;;7.88;100.00;101865.28;4983020;28;20113;-53
2022/10/31 05:25:36;;;;;;;45.67;27.55;;;;;;;7.90;100.00;101860.03;4984048;28;20035;-51
2022/10/31 05:28:02;;;;;;;52.97;29.85;;;;;;;7.78;100.00;101847.88;4989616;28;20038;-56
2022/10/31 05:30:30;;;;;;;48.38;28.88;;;;;;;7.46;100.00;101770.28;4977824;28;20043;-58
2022/10/31 05:32:55;;;;;;;45.20;27.58;;;;;;;7.81;100.00;101829.50;4973049;28;20055;-55
2022/10/31 05:35:23;;;;;;;52.33;28.65;;;;;;;7.48;100.00;101779.00;4982793;28;20073;-50
2022/10/31 05:37:49;;;;;;;50.20;28.33;;;;;;;7.75;100.00;101818.19;4983397;28;20037;-51
2022/10/31 05:40:15;;;;;;;54.80;29.52;;;;;;;7.84;100.00;101839.97;4991105;28;20422;-53
2022/10/31 05:42:42;;;;;;;48.30;27.92;;;;;;;7.84;100.00;101841.72;4978638;28;20101;-54
2022/10/31 05:45:09;;;;;;;52.22;30.58;;;;;;;7.80;100.00;101824.25;4988802;28;20031;-54
2022/10/31 05:47:34;;;;;;;48.83;28.88;;;;;;;7.41;100.00;101758.97;4985353;28;20070;-58
2022/10/31 05:49:59;;;;;;;53.35;30.33;;;;;;;7.78;100.00;101828.66;4981480;28;20070;-51
2022/10/31 05:52:24;;;;;;;49.83;30.92;;;;;;;7.47;100.00;101774.66;4991636;28;20508;-53
2022/10/31 05:54:50;;;;;;;55.25;29.83;;;;;;;7.75;100.00;101826.91;4979779;28;20041;-53
2022/10/31 05:57:15;;;;;;;49.35;28.98;;;;;;;7.32;100.00;101758.16;4987562;28;20043;-54
2022/10/31 05:59:40;;;;;;;53.70;30.35;;;;;;;7.73;100.00;101826.06;4986209;28;20034;-50
2022/10/31 06:02:06;;;;;;;45.17;29.15;;;;;;;7.72;100.00;101834.78;4980635;28;20398;-54
2022/10/31 06:04:31;;;;;;;51.20;30.52;;;;;;;7.68;100.00;101833.06;4991768;28;20499;-53
2022/10/31 06:06:56;;;;;;;48.75;29.58;;;;;;;7.66;100.00;101823.47;4980268;28;20065;-56
2022/10/31 06:09:22;;;;;;;52.42;29.67;;;;;;;7.65;100.00;101840.06;4993365;28;20057;-52
2022/10/31 06:11:47;;;;;;;62.90;30.80;;;;;;;7.65;100.00;101830.44;4994548;28;20034;-54
2022/10/31 06:14:12;;;;;;;55.55;32.00;;;;;;;7.38;100.00;101785.19;4979475;28;20035;-51
2022/10/31 06:16:38;;;;;;;51.30;29.77;;;;;;;7.65;100.00;101827.81;4989790;28;20038;-60
2022/10/31 06:19:03;;;;;;;52.88;30.05;;;;;;;7.33;100.00;101766.84;4980558;28;20425;-51
2022/10/31 06:21:28;;;;;;;52.40;31.58;;;;;;;7.29;100.00;101760.78;4985253;28;20066;-54
2022/10/31 06:23:54;;;;;;;49.45;30.27;;;;;;;6.65;100.00;101651.97;4987486;28;20069;-51
2022/10/31 06:26:19;;;;;;;49.58;30.85;;;;;;;7.53;100.00;101811.31;4978395;28;20038;-50
2022/10/31 06:28:44;;;;;;;50.60;30.77;;;;;;;7.68;100.00;101834.81;4990635;28;20038;-59
2022/10/31 06:31:09;;;;;;;51.60;31.17;;;;;;;7.30;100.00;101775.59;4981419;28;20038;-49
2022/10/31 06:33:35;;;;;;;55.80;31.85;;;;;;;7.68;100.00;101838.28;4984045;28;20035;-50
2022/10/31 06:36:01;;;;;;;55.50;31.90;;;;;;;7.38;100.00;101772.09;4988311;28;20038;-58
2022/10/31 06:38:27;;;;;;;53.85;34.13;;;;;;;7.68;100.00;101843.53;4960553;28;20034;-55
2022/10/31 06:40:52;;;;;;;48.40;32.25;;;;;;;7.59;100.00;101808.66;4988554;28;20060;-51
2022/10/31 06:43:18;;;;;;;57.08;33.60;;;;;;;7.64;100.00;101814.75;4982280;28;20050;-55
2022/10/31 06:45:43;;;;;;;52.47;33.13;;;;;;;7.64;100.00;101817.38;4982720;28;20042;-53
2022/10/31 06:48:08;;;;;;;48.60;33.55;;;;;;;7.73;100.00;101835.66;4987537;28;20046;-53
2022/10/31 06:50:34;;;;;;;54.85;34.42;;;;;;;7.77;100.00;101832.13;4977234;28;20568;-52
2022/10/31 06:52:59;;;;;;;55.95;35.58;;;;;;;7.67;100.00;101802.50;4986772;28;20466;-51
2022/10/31 06:55:25;;;;;;;53.47;33.55;;;;;;;7.81;100.00;101839.13;4981823;28;20042;-58
2022/10/31 06:57:54;;;;;;;52.58;35.78;;;;;;;7.84;100.00;101837.34;4980572;28;20038;-57
2022/10/31 07:00:20;;;;;;;57.33;35.78;;;;;;;7.91;100.00;101853.91;4990356;28;20389;-53
2022/10/31 07:03:07;;;;;;;52.15;34.97;;;;;;;8.01;100.00;101849.47;4976285;28;20111;-56
2022/10/31 07:05:32;;;;;;;57.60;37.30;;;;;;;7.71;100.00;101798.97;4984013;28;20027;-55
2022/10/31 07:08:00;;;;;;;57.08;35.17;;;;;;;7.99;100.00;101839.03;4987144;28;20460;-52
2022/10/31 07:10:27;;;;;;;61.35;37.15;;;;;;;8.08;100.00;101849.47;4993127;28;20053;-51
2022/10/31 07:12:57;;;;;;;57.53;37.67;;;;;;;8.18;100.00;101858.13;4989090;28;20061;-55
2022/10/31 07:15:26;;;;;;;60.55;37.72;;;;;;;8.15;100.00;101845.91;4980702;28;20046;-56
2022/10/31 07:17:51;;;;;;;69.15;42.65;;;;;;;7.79;100.00;101773.59;4979947;28;20487;-55
2022/10/31 07:20:17;;;;;;;68.00;42.28;;;;;;;8.39;100.00;101873.75;4989731;28;20038;-53
2022/10/31 07:22:42;;;;;;;76.93;47.20;;;;;;;8.59;100.00;101858.72;4977198;28;20034;-55
2022/10/31 07:25:08;;;;;;;96.68;49.70;;;;;;;8.81;100.00;101859.44;4985359;28;20039;-55
2022/10/31 07:27:37;;;;;;;81.55;48.17;;;;;;;8.99;100.00;101875.00;4983453;28;20039;-55
2022/10/31 07:30:03;;;;;;;118.53;52.42;;;;;;;9.09;100.00;101846.88;4991659;28;20121;-54
2022/10/31 07:32:40;;;;;;;91.28;46.88;;;;;;;8.88;100.00;101796.34;4992945;28;20129;-57
2022/10/31 07:35:07;;;;;;;92.32;45.42;;;;;;;9.40;100.00;101869.31;4992860;28;20022;-52
2022/10/31 07:37:32;;;;;;;82.28;44.10;;;;;;;9.01;100.00;101787.47;4983282;28;20046;-55
2022/10/31 07:39:57;;;;;;;72.07;41.83;;;;;;;9.49;100.00;101866.59;5001440;28;20057;-53
2022/10/31 07:42:23;;;;;;;79.57;42.28;;;;;;;9.21;100.00;101810.00;4992426;28;20054;-51
2022/10/31 07:44:48;;;;;;;66.10;39.97;;;;;;;9.25;100.00;101844.06;4976988;28;20030;-54
2022/10/31 07:47:13;;;;;;;72.40;40.83;;;;;;;9.13;100.00;101817.97;4989713;28;20038;-58
2022/10/31 07:49:39;;;;;;;83.72;43.92;;;;;;;9.42;100.00;101862.31;4980346;28;20042;-59
2022/10/31 07:52:04;;;;;;;73.75;42.28;;;;;;;9.44;100.00;101865.78;4984817;28;20046;-55
2022/10/31 07:54:29;;;;;;;72.63;41.00;;;;;;;9.45;100.00;101860.50;4990424;28;20038;-54
2022/10/31 07:56:54;;;;;;;78.43;40.53;;;;;;;9.14;100.00;101792.53;4977066;28;20042;-55
2022/10/31 07:59:20;;;;;;;78.57;38.22;;;;;;;9.14;100.00;101797.78;4982582;28;20451;-54
2022/10/31 08:01:45;;;;;;;82.05;39.25;;;;;;;9.51;100.00;101859.56;4983151;28;20498;-55
2022/10/31 08:04:10;;;;;;;68.25;36.33;;;;;;;9.49;100.00;101856.94;4976703;28;20042;-55
2022/10/31 08:06:36;;;;;;;82.88;38.42;;;;;;;9.47;100.00;101853.47;4987895;28;20112;-52
2022/10/31 08:09:01;;;;;;;90.47;39.70;;;;;;;9.11;100.00;101793.47;4982197;28;20062;-53
2022/10/31 08:11:26;;;;;;;79.63;37.15;;;;;;;9.52;100.00;101862.16;4991337;28;20474;-57
2022/10/31 08:13:52;;;;;;;96.10;39.03;;;;;;;9.58;100.00;101863.84;4961959;28;20035;-54
2022/10/31 08:16:17;;;;;;;117.38;39.58;;;;;;;9.63;100.00;101855.91;4987586;28;20038;-56
2022/10/31 08:18:42;;;;;;;86.78;36.97;;;;;;;9.37;100.00;101799.28;4974167;28;20038;-52
2022/10/31 08:21:08;;;;;;;108.05;40.47;;;;;;;9.79;100.00;101852.19;4983905;28;20038;-53
2022/10/31 08:23:33;;;;;;;82.53;37.15;;;;;;;9.85;100.00;101862.63;4981513;28;20093;-54
2022/10/31 08:25:58;;;;;;;84.95;35.83;;;;;;;9.94;100.00;101863.41;4991330;28;20030;-55
2022/10/31 08:28:23;;;;;;;78.93;37.55;;;;;;;10.03;100.00;101851.88;4986664;28;20497;-56
2022/10/31 08:30:49;;;;;;;63.10;35.58;;;;;;;10.09;100.00;101847.41;4990171;28;20057;-56
2022/10/31 08:33:17;;;;;;;88.50;38.63;;;;;;;9.84;100.00;101793.38;4991257;28;20039;-53
2022/10/31 08:35:43;;;;;;;85.57;37.40;;;;;;;10.16;100.00;101830.66;4991893;28;20524;-55
2022/10/31 08:38:10;;;;;;;68.70;35.92;;;;;;;10.06;100.00;101801.84;4974067;28;20065;-51
2022/10/31 08:40:35;;;;;;;80.40;35.33;;;;;;;10.15;100.00;101789.47;4991774;28;20057;-53
2022/10/31 08:43:03;;;;;;;67.25;33.97;;;;;;;10.34;100.00;101792.66;4989949;28;20034;-55
2022/10/31 08:45:30;;;;;;;48.22;30.42;;;;;;;10.53;100.00;101802.00;4990989;28;20121;-52
2022/10/31 08:48:00;;;;;;;59.10;31.02;;;;;;;10.84;100.00;101840.94;4990304;28;20044;-55
2022/10/31 08:50:26;;;;;;;70.43;32.92;;;;;;;10.87;100.00;101838.25;4989219;28;20096;-51
2022/10/31 08:52:52;;;;;;;60.28;31.30;;;;;;;10.88;100.00;101843.53;4971655;28;20063;-58
2022/10/31 08:55:17;;;;;;;92.60;33.17;;;;;;;10.98;100.00;101831.91;4971577;28;20051;-51
2022/10/31 08:57:42;;;;;;;70.40;31.45;;;;;;;10.86;100.00;101795.25;4972045;28;20158;-50
2022/10/31 09:00:08;;;;;;;66.80;32.88;;;;;;;11.17;100.00;101838.59;4971399;28;20043;-57
2022/10/31 09:02:33;;;;;;;66.57;31.35;;;;;;;11.22;100.00;101836.72;4972261;28;20031;-51
2022/10/31 09:04:59;;;;;;;65.65;31.77;;;;;;;11.23;100.00;101830.56;4972486;28;20035;-52
2022/10/31 09:07:24;;;;;;;73.80;30.92;;;;;;;11.09;100.00;101800.94;4971870;28;20498;-53
2022/10/31 09:09:49;;;;;;;59.42;31.10;;;;;;;11.41;100.00;101828.47;4972459;28;20039;-53
2022/10/31 09:12:15;;;;;;;68.10;31.33;;;;;;;11.13;100.00;101760.47;4972347;28;20086;-49
2022/10/31 09:14:40;;;;;;;68.03;32.28;;;;;;;11.60;100.00;101819.25;4989599;28;20467;-48
2022/10/31 09:17:05;;;;;;;53.13;30.33;;;;;;;11.74;100.00;101810.19;5007811;28;20112;-58
2022/10/31 09:19:31;;;;;;;48.38;30.23;;;;;;;11.87;100.00;101800.25;4995704;28;20402;-54
2022/10/31 09:21:56;;;;;;;49.78;31.75;;;;;;;11.57;100.00;101738.47;4993092;28;20039;-49
2022/10/31 09:24:21;;;;;;;54.03;31.55;;;;;;;11.79;100.00;101742.38;5010246;28;20061;-51
2022/10/31 09:26:47;;;;;;;43.85;28.95;;;;;;;11.79;100.00;101702.81;4994476;28;20030;-51
2022/10/31 09:29:12;;;;;;;43.55;29.95;;;;;;;12.36;100.00;101785.00;5009839;28;20141;-53
2022/10/31 09:31:37;;;;;;;42.65;28.75;;;;;;;12.40;100.00;101783.16;4977297;28;20039;-54
2022/10/31 09:34:03;;;;;;;38.90;27.55;;;;;;;12.45;100.00;101767.19;4981557;28;20458;-53
2022/10/31 09:36:28;;;;;;;37.25;27.08;;;;;;;12.29;100.00;101732.38;4977704;28;20046;-55
2022/10/31 09:38:53;;;;;;;37.05;27.40;;;;;;;12.46;100.00;101746.03;4994976;28;20038;-55
2022/10/31 09:41:25;;;;;;;36.20;26.88;;;;;;;12.68;100.00;101762.16;4989526;28;20035;-55
2022/10/31 09:44:04;;;;;;;33.13;25.75;;;;;;;12.86;100.00;101759.91;4995522;28;20033;-51
2022/10/31 09:46:56;;;;;;;33.20;25.42;;;;;;;13.02;100.00;101752.41;4993530;28;20504;-56
2022/10/31 09:49:43;;;;;;;30.85;24.92;;;;;;;13.24;100.00;101736.84;4995215;28;20397;-53
2022/10/31 09:52:13;;;;;;;31.02;23.63;;;;;;;13.28;100.00;101722.63;4993014;28;20058;-54
2022/10/31 09:54:55;;;;;;;27.30;21.88;;;;;;;13.49;100.00;101748.44;4993670;28;20054;-52
2022/10/31 09:57:31;;;;;;;;;;;;;;;13.57;100.00;101735.88;4994273;28;20041;-51
2022/10/31 09:59:56;;;;;;;26.42;21.77;;;;;;;13.31;100.00;101677.59;4993952;28;19921;-52
2022/10/31 10:02:25;;;;;;;27.00;22.13;;;;;;;13.69;100.00;101731.97;4994026;28;20037;-53
2022/10/31 10:04:57;;;;;;;25.27;21.13;;;;;;;13.72;100.00;101724.78;4994746;28;20069;-52
2022/10/31 10:07:46;;;;;;;28.75;20.52;;;;;;;13.69;100.00;101722.22;4992919;28;20045;-52
2022/10/31 10:10:16;;;;;;;26.30;20.05;;;;;;;13.77;100.00;101728.16;4993700;28;20030;-51
2022/10/31 10:12:59;;;;;;;23.60;19.98;;;;;;;13.81;100.00;101732.44;4994887;28;20116;-51
2022/10/31 10:15:25;;;;;;;25.08;21.27;;;;;;;13.80;100.00;101728.06;4992249;28;20080;-53
2022/10/31 10:18:00;;;;;;;28.20;21.48;;;;;;;13.86;100.00;101721.72;4993688;28;20030;-52
2022/10/31 10:21:02;;;;;;;25.15;19.80;;;;;;;13.64;100.00;101665.09;4992099;28;20489;-55
2022/10/31 10:23:31;;;;;;;22.33;19.15;;;;;;;14.15;100.00;101726.06;4991082;28;20478;-52
2022/10/31 10:26:25;;;;;;;24.50;18.65;;;;;;;14.42;100.00;101709.25;4979415;28;20034;-56
2022/10/31 10:29:22;;;;;;;21.83;18.40;;;;;;;14.74;100.00;101705.50;4973630;28;20042;-53
2022/10/31 10:31:49;;;;;;;22.80;17.67;;;;;;;14.69;100.00;101651.78;4992839;28;20046;-52
2022/10/31 10:34:26;;;;;;;19.23;15.57;;;;;;;14.92;100.00;101649.16;5008188;28;20545;-51
2022/10/31 10:36:58;;;;;;;19.65;17.48;;;;;;;15.23;100.00;101650.56;4989970;28;20474;-52
2022/10/31 10:39:29;;;;;;;21.40;17.67;;;;;;;15.56;100.00;101692.66;4991560;28;20031;-53
2022/10/31 10:47:46;;;;;;;22.15;16.15;;;;;;;15.70;100.00;101706.28;4989708;28;20062;-49
2022/10/31 10:50:17;;;;;;;19.75;14.93;;;;;;;15.33;100.00;101640.47;4979888;28;20038;-49
2022/10/31 10:52:59;;;;;;;18.20;15.20;;;;;;;15.46;100.00;101681.53;4980456;28;20041;-54
2022/10/31 10:55:33;;;;;;;22.73;16.27;;;;;;;15.31;100.00;101691.88;4988737;28;20429;-52
2022/10/31 10:58:04;;;;;;;20.42;16.55;;;;;;;15.32;100.00;101686.50;4980304;28;20068;-54
2022/10/31 11:00:31;;;;;;;21.42;16.38;;;;;;;15.24;100.00;101667.34;4992443;28;20038;-54
2022/10/31 11:02:56;;;;;;;20.80;16.33;;;;;;;15.34;100.00;101675.81;4975503;28;20118;-51
2022/10/31 11:05:36;;;;;;;22.88;17.15;;;;;;;15.32;100.00;101685.66;4975490;28;20121;-56
2022/10/31 11:08:02;;;;;;;20.63;16.92;;;;;;;15.07;100.00;101624.72;4986504;28;20039;-55
2022/10/31 11:10:28;;;;;;;22.60;17.67;;;;;;;15.01;100.00;101611.69;4974076;28;20069;-51
2022/10/31 11:13:02;;;;;;;23.10;17.23;;;;;;;15.49;100.00;101672.63;4972910;28;20102;-54
2022/10/31 11:15:27;;;;;;;22.63;16.40;;;;;;;15.59;100.00;101653.59;4988637;28;20117;-52
2022/10/31 11:17:55;;;;;;;23.58;16.88;;;;;;;15.72;100.00;101632.75;4966490;28;20042;-52
2022/10/31 11:20:28;;;;;;;20.65;16.77;;;;;;;16.02;100.00;101628.81;4963915;28;20038;-51
2022/10/31 11:23:17;;;;;;;22.25;16.63;;;;;;;16.28;100.00;101630.34;4975422;28;20047;-53
2022/10/31 11:26:20;;;;;;;23.70;15.80;;;;;;;16.70;100.00;101670.16;4967540;28;20089;-49